Aviation Digital Data Service (ADDS)

Output produced by METARs form (0618 UTC 19 February 2019)
found at http://www.aviationweather.gov/metar/data/
 
Forecast for: WMKN (KUALA TRENGGANU , MY)
Text: TAF WMKN 190500Z 1906/2006 09006KT 9999 SCT018 BKN300
Forecast period: 0600 UTC 19 February 2019 to 0600 UTC 20 February 2019
Forecast type: FROM: standard forecast or significant change
Winds: from the E (90 degrees) at 7 MPH (6 knots; 3.1 m/s)
Visibility: 6 or more miles 10+ km)
Ceiling: 30000 feet AGL
Clouds: scattered clouds at 1800 feet AGL
broken clouds at 30000 feet AGL
Weather: no significant weather forecast for this period